createdAt,value
2019-04-05T00:03:14.762Z,8.80
2019-04-05T00:08:21.912Z,8.80
2019-04-05T00:13:29.559Z,8.70
2019-04-05T00:18:37.006Z,8.70
2019-04-05T00:23:44.101Z,8.60
2019-04-05T00:28:51.898Z,8.40
2019-04-05T00:33:59.767Z,8.30
2019-04-05T00:39:09.128Z,8.30
2019-04-05T00:44:16.171Z,8.20
2019-04-05T00:49:23.349Z,8.10
2019-04-05T00:54:30.415Z,8.10
2019-04-05T00:59:37.486Z,8.00
2019-04-05T01:04:44.563Z,8.00
2019-04-05T01:09:52.020Z,8.00
2019-04-05T01:14:59.263Z,8.00
2019-04-05T01:20:07.737Z,7.90
2019-04-05T01:25:15.117Z,7.90
2019-04-05T01:30:23.459Z,8.00
2019-04-05T01:35:30.706Z,7.90
2019-04-05T01:40:40.959Z,7.70
2019-04-05T01:45:54.005Z,7.70
2019-04-05T01:50:57.221Z,7.80
2019-04-05T01:56:04.858Z,7.70
2019-04-05T02:01:12.511Z,7.60
2019-04-05T02:06:19.832Z,7.50
2019-04-05T02:11:27.983Z,7.30
2019-04-05T02:16:35.976Z,7.30
2019-04-05T02:21:43.098Z,7.20
2019-04-05T02:26:50.252Z,7.20
2019-04-05T02:31:57.430Z,7.10
2019-04-05T02:37:04.586Z,7.00
2019-04-05T02:42:12.842Z,6.90
2019-04-05T02:47:21.114Z,6.90
2019-04-05T02:52:30.499Z,6.80
2019-04-05T02:57:37.961Z,6.80
2019-04-05T03:02:45.008Z,6.80
2019-04-05T03:07:52.611Z,6.80
2019-04-05T03:12:59.793Z,6.70
2019-04-05T03:18:07.227Z,6.70
2019-04-05T03:23:15.268Z,6.70
2019-04-05T03:28:23.657Z,6.60
2019-04-05T03:33:30.924Z,6.60
2019-04-05T03:38:38.530Z,6.70
2019-04-05T03:43:46.874Z,6.60
2019-04-05T03:48:54.530Z,6.70
2019-04-05T03:54:01.816Z,6.70
2019-04-05T03:59:09.063Z,6.60
2019-04-05T04:04:16.836Z,6.60
2019-04-05T04:09:24.031Z,6.70
2019-04-05T04:14:31.193Z,6.70
2019-04-05T04:19:38.500Z,6.60
2019-04-05T04:24:45.677Z,6.60
2019-04-05T04:29:53.842Z,6.60
2019-04-05T04:35:01.026Z,6.50
2019-04-05T04:40:08.822Z,6.50
2019-04-05T04:45:16.516Z,6.50
2019-04-05T04:50:24.883Z,6.70
2019-04-05T04:55:32.263Z,6.80
2019-04-05T05:00:39.434Z,6.90
2019-04-05T05:05:46.686Z,7.00
2019-04-05T05:10:54.026Z,7.00
2019-04-05T05:16:01.274Z,7.20
2019-04-05T05:21:09.544Z,7.30
2019-04-05T05:26:17.294Z,7.50
2019-04-05T05:31:25.589Z,7.70
2019-04-05T05:36:33.058Z,7.90
2019-04-05T05:41:40.263Z,8.00
2019-04-05T05:46:47.407Z,8.30
2019-04-05T05:51:55.210Z,8.40
2019-04-05T05:57:02.589Z,8.60
2019-04-05T06:02:09.835Z,8.80
2019-04-05T06:07:19.947Z,8.90
2019-04-05T06:12:25.643Z,9.10
2019-04-05T06:17:32.693Z,9.30
2019-04-05T06:22:39.858Z,9.40
2019-04-05T06:27:47.199Z,9.40
2019-04-05T06:32:54.275Z,9.60
2019-04-05T06:38:01.403Z,9.80
2019-04-05T06:43:08.524Z,9.90
2019-04-05T06:48:19.590Z,9.90
2019-04-05T06:53:24.807Z,10.10
2019-04-05T06:58:31.906Z,10.30
2019-04-05T07:03:39.073Z,10.50
2019-04-05T07:08:53.733Z,10.80
2019-04-05T07:13:55.442Z,10.80
2019-04-05T07:19:02.588Z,11.10
2019-04-05T07:24:09.653Z,11.30
2019-04-05T07:29:17.942Z,11.60
2019-04-05T07:34:25.086Z,11.90
2019-04-05T07:39:32.237Z,12.10
2019-04-05T07:44:39.414Z,12.20
2019-04-05T07:49:46.712Z,12.20
2019-04-05T07:54:54.083Z,12.30
2019-04-05T08:00:02.284Z,12.60
2019-04-05T08:05:10.719Z,12.80
2019-04-05T08:10:18.091Z,13.00
2019-04-05T08:15:25.684Z,13.40
2019-04-05T08:20:32.721Z,13.70
2019-04-05T08:25:41.364Z,13.60
2019-04-05T08:30:48.602Z,13.70
2019-04-05T08:35:55.652Z,14.10
2019-04-05T08:41:02.855Z,14.30
2019-04-05T08:46:10.121Z,14.40
2019-04-05T08:51:17.964Z,14.80
2019-04-05T08:56:28.793Z,15.20
2019-04-05T09:01:43.858Z,15.40
2019-04-05T09:06:56.526Z,15.50
2019-04-05T09:12:08.863Z,15.60
2019-04-05T09:17:20.095Z,15.70
2019-04-05T09:22:31.232Z,15.90
2019-04-05T09:27:40.748Z,16.20
2019-04-05T09:32:51.562Z,16.40
2019-04-05T09:38:01.593Z,16.40
2019-04-05T09:43:15.587Z,16.60
2019-04-05T09:48:24.805Z,16.60
2019-04-05T09:53:32.871Z,17.10
2019-04-05T09:58:39.950Z,17.40
2019-04-05T10:03:47.138Z,17.70
2019-04-05T10:08:54.486Z,17.80
2019-04-05T10:14:01.548Z,17.80
2019-04-05T10:19:08.636Z,18.00
2019-04-05T10:24:15.775Z,18.50
2019-04-05T10:29:23.329Z,18.80
2019-04-05T10:34:30.353Z,19.10
2019-04-05T10:39:37.434Z,19.40
2019-04-05T10:44:44.608Z,19.20
2019-04-05T10:50:02.198Z,19.40
2019-04-05T10:55:00.761Z,19.20
2019-04-05T11:00:12.025Z,19.10
2019-04-05T11:05:18.998Z,19.20
2019-04-05T11:10:26.476Z,19.20
2019-04-05T11:15:33.438Z,19.70
2019-04-05T11:20:40.485Z,19.80
2019-04-05T11:25:47.567Z,20.10
2019-04-05T11:30:54.594Z,19.90
2019-04-05T11:36:01.950Z,20.10
2019-04-05T11:41:09.358Z,20.30
2019-04-05T11:46:18.322Z,20.90
2019-04-05T11:51:25.477Z,21.20
2019-04-05T11:56:33.776Z,21.60
2019-04-05T12:01:48.527Z,21.90
2019-04-05T12:06:55.985Z,22.00
2019-04-05T12:12:03.187Z,22.60
2019-04-05T12:17:11.507Z,23.50
2019-04-05T12:22:20.066Z,25.10
2019-04-05T12:27:28.299Z,25.70
2019-04-05T12:32:41.043Z,26.50
2019-04-05T12:37:50.541Z,26.90
2019-04-05T12:42:54.267Z,27.70
2019-04-05T12:48:01.746Z,28.50
2019-04-05T12:53:08.773Z,29.90
2019-04-05T12:58:17.579Z,30.30
2019-04-05T13:03:24.635Z,30.30
2019-04-05T13:08:31.831Z,31.30
2019-04-05T13:13:38.930Z,31.10
2019-04-05T13:18:46.078Z,32.40
2019-04-05T13:23:53.246Z,31.80
2019-04-05T13:29:00.321Z,32.30
2019-04-05T13:34:07.435Z,31.70
2019-04-05T13:39:14.425Z,31.50
2019-04-05T13:44:21.490Z,32.40
2019-04-05T13:49:28.661Z,33.30
2019-04-05T13:54:40.338Z,33.80
2019-04-05T13:59:47.979Z,32.50
2019-04-05T14:04:55.162Z,32.50
2019-04-05T14:10:02.355Z,31.80
2019-04-05T14:15:12.063Z,32.40
2019-04-05T14:20:19.914Z,32.50
2019-04-05T14:25:30.008Z,31.70
2019-04-05T14:30:36.797Z,32.30
2019-04-05T14:35:43.966Z,32.10
2019-04-05T14:40:51.048Z,32.50
2019-04-05T14:45:58.245Z,31.50
2019-04-05T14:51:06.718Z,31.10
2019-04-05T14:56:13.901Z,30.90
2019-04-05T15:01:20.984Z,31.10
2019-04-05T15:06:28.179Z,30.30
2019-04-05T15:11:35.793Z,30.30
2019-04-05T15:16:42.867Z,29.50
2019-04-05T15:21:50.273Z,29.20
2019-04-05T15:26:57.696Z,29.50
2019-04-05T15:32:06.176Z,28.50
2019-04-05T15:37:15.872Z,28.20
2019-04-05T15:42:22.195Z,27.80
2019-04-05T15:47:31.761Z,27.40
2019-04-05T15:52:38.122Z,27.10
2019-04-05T15:57:45.202Z,26.30
2019-04-05T16:02:52.378Z,26.00
2019-04-05T16:07:59.524Z,25.70
2019-04-05T16:13:08.242Z,25.30
2019-04-05T16:18:17.697Z,25.10
2019-04-05T16:23:27.256Z,24.90
2019-04-05T16:28:35.502Z,24.70
2019-04-05T16:33:42.595Z,24.30
2019-04-05T16:38:51.068Z,24.10
2019-04-05T16:44:00.119Z,23.80
2019-04-05T16:49:07.210Z,23.30
2019-04-05T16:54:14.442Z,22.70
2019-04-05T16:59:21.936Z,22.00
2019-04-05T17:04:29.087Z,21.20
2019-04-05T17:09:36.154Z,20.40
2019-04-05T17:14:43.194Z,19.40
2019-04-05T17:19:50.262Z,18.40
2019-04-05T17:24:57.310Z,17.60
2019-04-05T17:30:05.196Z,17.10
2019-04-05T17:35:12.425Z,16.70
2019-04-05T17:40:31.255Z,16.30
2019-04-05T17:45:38.298Z,16.00
2019-04-05T17:50:45.323Z,15.60
2019-04-05T17:55:52.582Z,15.40
2019-04-05T18:00:59.794Z,15.20
2019-04-05T18:06:06.868Z,15.00
2019-04-05T18:11:14.236Z,14.80
2019-04-05T18:16:21.580Z,14.70
2019-04-05T18:21:28.656Z,14.70
2019-04-05T18:26:36.012Z,14.40
2019-04-05T18:31:43.083Z,14.20
2019-04-05T18:36:50.166Z,14.10
2019-04-05T18:41:57.219Z,13.80
2019-04-05T18:47:04.266Z,13.70
2019-04-05T18:52:11.436Z,13.50
2019-04-05T18:57:18.567Z,13.50
2019-04-05T19:02:25.705Z,13.50
2019-04-05T19:07:32.777Z,13.50
2019-04-05T19:12:40.041Z,13.50
2019-04-05T19:17:47.111Z,13.40
2019-04-05T19:22:55.434Z,13.40
2019-04-05T19:28:02.499Z,13.30
2019-04-05T19:48:37.516Z,13.00
2019-04-05T19:53:44.548Z,12.80
2019-04-05T19:58:51.614Z,12.60
2019-04-05T20:03:59.058Z,12.50
2019-04-05T20:09:07.701Z,12.40
2019-04-05T20:14:14.755Z,12.20
2019-04-05T20:19:21.683Z,12.20
2019-04-05T20:24:28.737Z,12.10
2019-04-05T20:29:35.991Z,12.10
2019-04-05T20:34:43.256Z,11.90
2019-04-05T20:39:51.351Z,11.90
2019-04-05T20:44:58.551Z,11.70
2019-04-05T20:50:06.951Z,11.80
2019-04-05T20:55:15.072Z,11.70
2019-04-05T21:00:22.155Z,11.70
2019-04-05T21:05:29.227Z,11.60
2019-04-05T21:10:36.471Z,11.50
2019-04-05T21:15:43.638Z,11.40
2019-04-05T21:20:51.913Z,11.40
2019-04-05T21:25:59.087Z,11.30
2019-04-05T21:31:06.167Z,11.30
2019-04-05T21:36:14.331Z,11.20
2019-04-05T21:41:21.610Z,11.10
2019-04-05T21:46:29.038Z,11.00
2019-04-05T21:51:36.095Z,11.00
2019-04-05T21:56:45.462Z,10.80
2019-04-05T22:01:52.008Z,10.80
2019-04-05T22:07:00.299Z,10.70
2019-04-05T22:12:07.239Z,10.60
2019-04-05T22:17:14.207Z,10.60
2019-04-05T22:22:21.137Z,10.60
2019-04-05T22:27:28.410Z,10.40
2019-04-05T22:32:35.550Z,10.50
2019-04-05T22:37:42.626Z,10.40
2019-04-05T22:42:49.901Z,10.30
2019-04-05T22:47:56.949Z,10.20
2019-04-05T22:53:04.143Z,10.10
2019-04-05T22:58:11.270Z,10.00
2019-04-05T23:03:18.402Z,9.80
2019-04-05T23:08:25.639Z,9.80
2019-04-05T23:13:32.824Z,9.80
2019-04-05T23:18:39.875Z,9.80
2019-04-05T23:23:47.391Z,9.70
2019-04-05T23:28:54.587Z,9.70
2019-04-05T23:34:01.671Z,9.70
2019-04-05T23:39:08.683Z,9.70
2019-04-05T23:44:15.752Z,9.70
2019-04-05T23:49:22.803Z,9.60
2019-04-05T23:54:30.312Z,9.50
2019-04-05T23:59:37.366Z,9.40
